Time;durP1;ratioP1;P1;durP2;ratioP2;P2;SDS_P1;SDS_P2;PMS_P1;PMS_P2;Temp;Humidity;BMP_temperature;BMP_pressure;BME280_temperature;BME280_humidity;BME280_pressure;Samples;Min_cycle;Max_cycle;Signal;HPM_P1;HPM_P2
2021/09/13 00:00:01;;;;;;;3.25;2.95;;;;;;;19.64;72.01;100953.84;5067935;28;20024;-48
2021/09/13 00:02:29;;;;;;;4.45;3.00;;;;;;;19.63;72.03;100953.97;5071186;28;20044;-47
2021/09/13 00:04:55;;;;;;;4.78;3.20;;;;;;;19.64;71.99;100955.69;5054494;28;20082;-47
2021/09/13 00:07:21;;;;;;;4.38;3.75;;;;;;;19.65;71.96;100957.41;5070305;28;20074;-51
2021/09/13 00:09:47;;;;;;;3.40;3.10;;;;;;;19.63;71.84;100943.25;5053313;28;20032;-47
2021/09/13 00:12:13;;;;;;;3.85;3.45;;;;;;;19.63;71.88;100948.59;5070706;28;20024;-50
2021/09/13 00:14:39;;;;;;;3.38;3.08;;;;;;;19.62;72.06;100953.06;5069560;28;20038;-47
2021/09/13 00:17:05;;;;;;;3.67;3.38;;;;;;;19.61;72.03;100952.19;5070644;28;20047;-47
2021/09/13 00:19:31;;;;;;;3.53;3.22;;;;;;;19.60;71.83;100953.13;5068601;28;20029;-48
2021/09/13 00:21:57;;;;;;;3.58;3.28;;;;;;;19.61;71.93;100954.03;5070675;28;20032;-47
2021/09/13 00:24:23;;;;;;;4.53;3.58;;;;;;;19.60;71.86;100955.81;5070219;28;20035;-49
2021/09/13 00:26:50;;;;;;;3.72;3.42;;;;;;;19.59;72.05;100953.19;5070215;28;20024;-48
2021/09/13 00:29:16;;;;;;;3.63;3.33;;;;;;;19.59;72.02;100962.09;5052733;28;20533;-47
2021/09/13 00:31:42;;;;;;;3.40;3.10;;;;;;;19.58;71.85;100957.66;5070911;28;20021;-47
2021/09/13 00:34:08;;;;;;;3.40;3.10;;;;;;;19.59;71.84;100963.91;5070132;28;20386;-46
2021/09/13 00:36:34;;;;;;;3.58;3.28;;;;;;;19.58;71.98;100957.66;5070923;28;20054;-48
2021/09/13 00:39:00;;;;;;;3.25;2.90;;;;;;;19.58;71.91;100963.03;5068098;28;20028;-47
2021/09/13 00:41:26;;;;;;;3.35;3.05;;;;;;;19.57;72.06;100955.94;5070639;28;20070;-47
2021/09/13 00:43:52;;;;;;;3.63;3.30;;;;;;;19.58;71.99;100959.50;5069821;28;20028;-47
2021/09/13 00:46:18;;;;;;;3.65;3.35;;;;;;;19.57;71.88;100963.13;5070888;28;20359;-47
2021/09/13 00:48:44;;;;;;;3.95;3.60;;;;;;;19.56;71.95;100964.91;5068027;28;20082;-47
2021/09/13 00:51:11;;;;;;;3.78;3.15;;;;;;;19.56;71.84;100966.69;5070099;28;20082;-46
2021/09/13 00:53:37;;;;;;;3.47;3.17;;;;;;;19.55;71.86;100963.19;5051012;28;20037;-47
2021/09/13 00:56:03;;;;;;;3.60;3.30;;;;;;;19.56;71.95;100964.03;5055885;28;20021;-49
2021/09/13 00:58:29;;;;;;;4.05;3.65;;;;;;;19.54;71.82;100964.09;5055138;28;20042;-47
2021/09/13 01:00:56;;;;;;;3.72;3.40;;;;;;;19.55;71.81;100963.19;5069980;28;20474;-48
2021/09/13 01:03:22;;;;;;;3.75;3.45;;;;;;;19.54;71.99;100966.75;5070061;28;20385;-47
2021/09/13 01:05:48;;;;;;;4.95;3.58;;;;;;;19.55;71.93;100973.00;5070121;28;20051;-47
2021/09/13 01:08:14;;;;;;;4.15;3.38;;;;;;;19.53;72.02;100967.72;5067232;28;20035;-48
2021/09/13 01:10:40;;;;;;;3.67;3.38;;;;;;;19.53;72.09;100972.16;5068763;28;20409;-47
2021/09/13 01:13:06;;;;;;;3.50;3.10;;;;;;;19.53;71.91;100975.72;5069427;28;20443;-48
2021/09/13 01:15:38;;;;;;;4.03;3.03;;;;;;;19.53;71.98;100965.03;5069632;28;20061;-47
2021/09/13 01:18:04;;;;;;;3.53;3.22;;;;;;;19.52;71.86;100968.66;5070321;28;20020;-47
2021/09/13 01:20:29;;;;;;;3.45;3.15;;;;;;;19.52;71.84;100968.66;5036290;28;21584;-46
2021/09/13 01:22:55;;;;;;;3.75;3.45;;;;;;;19.52;71.90;100967.75;5052123;28;21374;-48
2021/09/13 01:25:20;;;;;;;4.18;3.63;;;;;;;19.51;71.90;100972.28;5069391;28;20059;-48
2021/09/13 01:27:46;;;;;;;3.60;3.30;;;;;;;19.51;71.88;100971.38;5067981;28;20379;-47
2021/09/13 01:30:12;;;;;;;3.10;2.90;;;;;;;19.49;72.00;100964.31;5069461;28;20024;-48
2021/09/13 01:32:37;;;;;;;3.63;3.28;;;;;;;19.49;71.88;100963.44;5066528;28;20475;-47
2021/09/13 01:35:04;;;;;;;3.65;3.35;;;;;;;19.49;71.86;100963.44;5069377;28;20047;-48
2021/09/13 01:37:29;;;;;;;3.47;3.17;;;;;;;19.49;71.73;100968.78;5069227;28;20035;-48
2021/09/13 01:39:55;;;;;;;3.60;3.30;;;;;;;19.48;71.97;100959.03;5069561;28;20590;-52
2021/09/13 01:42:21;;;;;;;3.50;3.20;;;;;;;19.47;72.04;100957.25;5055303;28;20029;-48
2021/09/13 01:44:47;;;;;;;3.55;3.25;;;;;;;19.47;71.98;100954.56;5068776;28;20108;-48
2021/09/13 01:47:13;;;;;;;3.47;3.17;;;;;;;19.46;71.86;100956.41;5053499;28;20051;-48
2021/09/13 01:49:39;;;;;;;3.70;3.40;;;;;;;19.46;71.88;100959.06;5051883;28;20469;-47
2021/09/13 01:52:05;;;;;;;3.42;3.13;;;;;;;19.46;71.96;100952.84;5069624;28;20466;-47
2021/09/13 01:54:31;;;;;;;3.47;3.17;;;;;;;19.46;71.98;100952.84;5068985;28;20391;-47
2021/09/13 01:56:57;;;;;;;3.78;3.35;;;;;;;19.45;71.99;100952.00;5068729;28;20012;-49
2021/09/13 01:59:23;;;;;;;3.80;3.50;;;;;;;19.44;71.98;100954.72;5068690;28;20025;-46
2021/09/13 02:01:49;;;;;;;3.30;3.00;;;;;;;19.44;71.98;100960.09;5069075;28;20013;-52
2021/09/13 02:04:14;;;;;;;3.53;3.22;;;;;;;19.44;71.87;100949.38;5068913;28;20029;-48
2021/09/13 02:06:40;;;;;;;3.63;3.33;;;;;;;19.44;71.90;100952.06;5069473;28;20453;-48
2021/09/13 02:09:06;;;;;;;3.42;3.13;;;;;;;19.40;72.04;100947.78;5068691;28;20020;-47
2021/09/13 02:11:32;;;;;;;3.80;3.28;;;;;;;19.42;72.00;100952.13;5069478;28;20433;-47
2021/09/13 02:13:58;;;;;;;4.13;3.60;;;;;;;19.41;71.84;100954.84;5068750;28;20036;-50
2021/09/13 02:16:42;;;;;;;3.67;3.35;;;;;;;19.42;71.96;100953.91;5067694;28;20028;-47
2021/09/13 02:19:08;;;;;;;4.68;3.33;;;;;;;19.42;72.00;100956.59;5067045;28;20551;-47
2021/09/13 02:21:34;;;;;;;3.35;3.05;;;;;;;19.41;71.88;100954.84;5069353;28;20103;-47
2021/09/13 02:24:00;;;;;;;3.65;3.35;;;;;;;19.40;71.88;100953.13;5068286;28;20043;-49
2021/09/13 02:26:26;;;;;;;3.65;3.20;;;;;;;19.39;71.93;100946.91;5068987;28;20031;-47
2021/09/13 02:28:52;;;;;;;3.58;3.28;;;;;;;19.40;71.83;100964.69;5068629;28;20033;-47
2021/09/13 02:31:17;;;;;;;3.88;3.47;;;;;;;19.40;72.04;100963.81;5068848;28;20056;-48
2021/09/13 02:33:43;;;;;;;3.95;3.42;;;;;;;19.39;71.97;100962.06;5066903;28;20020;-47
2021/09/13 02:36:08;;;;;;;3.40;3.20;;;;;;;19.39;71.88;100959.38;5068877;28;20028;-46
2021/09/13 02:38:34;;;;;;;4.00;3.67;;;;;;;19.39;71.88;100962.06;5069303;28;20494;-46
2021/09/13 02:40:59;;;;;;;3.88;3.45;;;;;;;19.38;71.77;100961.22;5056114;28;20051;-48
2021/09/13 02:43:25;;;;;;;4.07;3.20;;;;;;;19.39;71.92;100954.03;5069050;28;20024;-47
2021/09/13 02:45:50;;;;;;;3.40;3.10;;;;;;;19.38;71.80;100960.31;5068267;28;20463;-46
2021/09/13 02:48:15;;;;;;;3.90;3.30;;;;;;;19.37;71.90;100959.44;5070646;28;20020;-49
2021/09/13 02:50:41;;;;;;;3.95;3.35;;;;;;;19.37;71.92;100964.78;5072357;28;20024;-46
2021/09/13 02:53:06;;;;;;;3.58;3.28;;;;;;;19.37;71.83;100964.78;5056173;28;20029;-48
2021/09/13 02:55:32;;;;;;;3.92;3.63;;;;;;;19.36;72.02;100958.59;5072366;28;20057;-47
2021/09/13 02:57:57;;;;;;;3.38;3.08;;;;;;;19.36;71.81;100958.59;5057806;28;20042;-46
2021/09/13 03:00:23;;;;;;;3.72;3.42;;;;;;;19.35;71.92;100955.97;5072596;28;20504;-47
2021/09/13 03:02:49;;;;;;;4.22;3.83;;;;;;;19.36;71.96;100963.94;5072248;28;20103;-48
2021/09/13 03:05:15;;;;;;;3.58;3.10;;;;;;;19.35;71.88;100961.34;5072200;28;20024;-48
2021/09/13 03:07:41;;;;;;;3.95;3.65;;;;;;;19.33;71.91;100961.38;5072721;28;20035;-48
2021/09/13 03:10:07;;;;;;;4.07;3.78;;;;;;;19.33;71.88;100957.84;5072108;28;20029;-47
2021/09/13 03:12:34;;;;;;;3.85;3.55;;;;;;;19.32;71.91;100965.00;5072613;28;20020;-48
2021/09/13 03:15:04;;;;;;;4.60;3.83;;;;;;;19.32;71.78;100956.97;5071976;28;20108;-47
2021/09/13 03:17:30;;;;;;;4.23;3.93;;;;;;;19.33;71.95;100958.72;5070372;28;20012;-48
2021/09/13 03:19:56;;;;;;;3.75;3.25;;;;;;;19.32;71.89;100962.34;5071398;28;20032;-47
2021/09/13 03:22:22;;;;;;;3.88;3.47;;;;;;;19.32;71.98;100965.00;5071689;28;20033;-47
2021/09/13 03:24:48;;;;;;;4.45;4.05;;;;;;;19.31;71.90;100965.91;5052741;28;20040;-47
2021/09/13 03:27:14;;;;;;;4.28;3.90;;;;;;;19.31;71.90;100965.91;5070762;28;20044;-50
2021/09/13 03:29:39;;;;;;;3.97;3.58;;;;;;;19.30;71.92;100958.84;5070714;28;20051;-48
2021/09/13 03:32:06;;;;;;;4.40;4.00;;;;;;;19.30;71.77;100964.19;5071153;28;20028;-47
2021/09/13 03:34:31;;;;;;;4.30;3.90;;;;;;;19.29;71.80;100959.78;5071906;28;20103;-47
2021/09/13 03:36:59;;;;;;;4.07;3.67;;;;;;;19.30;71.86;100960.63;5072363;28;20119;-46
2021/09/13 03:39:25;;;;;;;4.00;3.60;;;;;;;19.28;71.77;100949.16;5071480;28;20505;-47
2021/09/13 03:41:51;;;;;;;4.57;4.18;;;;;;;19.28;71.81;100960.72;5071928;28;20474;-47
2021/09/13 03:44:17;;;;;;;3.88;3.58;;;;;;;19.28;71.86;100959.84;5071509;28;20021;-47
2021/09/13 03:46:43;;;;;;;3.95;3.65;;;;;;;19.27;71.88;100958.97;5071664;28;20525;-47
2021/09/13 03:49:08;;;;;;;4.40;4.00;;;;;;;19.27;71.95;100964.31;5070744;28;20035;-46
2021/09/13 03:51:34;;;;;;;4.10;3.70;;;;;;;19.26;71.82;100959.91;5054513;28;20107;-48
2021/09/13 03:54:01;;;;;;;4.18;3.83;;;;;;;19.25;71.79;100963.50;5071512;28;20101;-48
2021/09/13 03:56:26;;;;;;;4.30;3.92;;;;;;;19.25;71.97;100963.50;5071630;28;20062;-48
2021/09/13 03:58:52;;;;;;;4.68;4.18;;;;;;;19.24;71.51;100964.44;5070011;28;20024;-48
2021/09/13 04:01:17;;;;;;;4.85;4.45;;;;;;;19.23;72.14;100958.22;5054707;28;20066;-49
2021/09/13 04:03:47;;;;;;;4.82;4.43;;;;;;;19.22;71.88;100961.84;5067172;28;20081;-48
2021/09/13 04:06:41;;;;;;;4.78;4.38;;;;;;;19.22;71.96;100960.97;5039707;28;20047;-48
2021/09/13 04:11:47;;;;;;;4.68;4.28;;;;;;;19.21;71.96;100959.22;5070361;28;20104;-48
2021/09/13 04:14:13;;;;;;;5.00;4.55;;;;;;;19.20;71.83;100955.69;5068574;28;20043;-48
2021/09/13 04:16:38;;;;;;;4.53;4.22;;;;;;;19.19;71.85;100967.31;5072717;28;20565;-49
2021/09/13 04:19:04;;;;;;;4.38;4.07;;;;;;;19.19;71.86;100966.44;5070642;28;20020;-49
2021/09/13 04:21:30;;;;;;;3.90;3.60;;;;;;;19.19;71.87;100961.09;5070966;28;20099;-48
2021/09/13 04:23:56;;;;;;;4.75;4.35;;;;;;;19.19;71.92;100971.78;5070996;28;20429;-48
2021/09/13 04:26:22;;;;;;;4.47;4.07;;;;;;;19.17;71.97;100966.50;5070538;28;20042;-48
2021/09/13 04:28:48;;;;;;;4.60;4.30;;;;;;;19.17;71.97;100976.34;5056129;28;20025;-49
2021/09/13 04:31:13;;;;;;;4.82;4.43;;;;;;;19.16;71.99;100971.91;5056216;28;20510;-49
2021/09/13 04:33:39;;;;;;;4.75;4.13;;;;;;;19.16;71.97;100971.91;5070739;28;20417;-49
2021/09/13 04:36:05;;;;;;;5.35;4.88;;;;;;;19.16;71.91;100974.56;5055134;28;20028;-48
2021/09/13 04:38:32;;;;;;;5.22;4.13;;;;;;;19.16;72.00;100966.53;5070293;28;20086;-48
2021/09/13 04:40:57;;;;;;;5.47;4.95;;;;;;;19.15;71.85;100964.81;5069428;28;20029;-48
2021/09/13 04:43:22;;;;;;;4.72;4.32;;;;;;;19.15;71.62;100964.81;5071001;28;20032;-48
2021/09/13 04:45:48;;;;;;;5.50;5.00;;;;;;;19.14;71.93;100973.78;5069997;28;20029;-48
2021/09/13 04:48:13;;;;;;;4.35;4.00;;;;;;;19.13;71.84;100978.25;5070286;28;20032;-49
2021/09/13 04:50:39;;;;;;;5.55;5.03;;;;;;;19.13;72.01;100983.59;5070611;28;20107;-48
2021/09/13 04:53:05;;;;;;;4.97;4.57;;;;;;;19.13;71.86;100978.25;5070664;28;20055;-48
2021/09/13 04:55:31;;;;;;;5.38;4.88;;;;;;;19.13;71.78;100974.69;5068920;28;20024;-48
2021/09/13 04:57:56;;;;;;;5.25;4.85;;;;;;;19.12;71.82;100975.63;5070662;28;20028;-49
2021/09/13 05:00:23;;;;;;;5.47;4.97;;;;;;;19.11;71.90;100982.81;5070299;28;20073;-49
2021/09/13 05:02:48;;;;;;;4.65;4.32;;;;;;;19.10;71.77;100981.91;5069909;28;20514;-48
2021/09/13 05:05:14;;;;;;;6.00;5.50;;;;;;;19.08;71.81;100978.41;5069778;28;20103;-48
2021/09/13 05:07:39;;;;;;;6.28;5.68;;;;;;;19.07;71.98;100984.72;5055946;28;20029;-48
2021/09/13 05:10:05;;;;;;;5.20;4.70;;;;;;;19.08;71.96;100977.56;5069772;28;20028;-48
2021/09/13 05:12:30;;;;;;;6.65;5.60;;;;;;;19.08;71.85;100977.56;5070290;28;20028;-48
2021/09/13 05:14:56;;;;;;;5.50;5.00;;;;;;;19.08;71.89;100980.25;5053636;28;20074;-48
2021/09/13 05:17:21;;;;;;;6.20;5.70;;;;;;;19.08;72.10;100989.13;5070196;28;20024;-48
2021/09/13 05:19:47;;;;;;;5.97;5.47;;;;;;;19.06;71.72;100982.97;5068370;28;20526;-47
2021/09/13 05:22:12;;;;;;;5.38;4.88;;;;;;;19.07;71.75;100986.50;5070138;28;20048;-47
2021/09/13 05:24:38;;;;;;;5.57;5.10;;;;;;;19.05;71.86;100989.22;5068475;28;20020;-48
2021/09/13 05:27:04;;;;;;;6.03;5.53;;;;;;;19.05;71.92;100991.91;5070163;28;20020;-47
2021/09/13 05:29:29;;;;;;;5.53;5.03;;;;;;;19.05;71.88;100997.25;5069102;28;20039;-48
2021/09/13 05:31:55;;;;;;;5.55;5.05;;;;;;;19.05;71.91;101007.94;5069812;28;20506;-47
2021/09/13 05:34:20;;;;;;;6.68;6.07;;;;;;;19.04;71.78;101000.81;5069393;28;20039;-48
2021/09/13 05:36:45;;;;;;;5.78;5.28;;;;;;;19.04;71.87;101000.81;5070303;28;20016;-48
2021/09/13 05:39:11;;;;;;;6.03;5.43;;;;;;;19.03;71.75;101007.13;5070159;28;20402;-48
2021/09/13 05:41:36;;;;;;;5.80;5.30;;;;;;;19.02;71.85;101008.06;5066819;28;20036;-48
2021/09/13 05:44:01;;;;;;;5.85;5.35;;;;;;;19.03;71.75;101011.56;5070081;28;20051;-47
2021/09/13 05:46:27;;;;;;;5.68;5.07;;;;;;;19.03;71.91;101011.56;5070011;28;20021;-48
2021/09/13 05:48:52;;;;;;;5.85;5.35;;;;;;;19.01;71.82;101009.00;5069537;28;20042;-47
2021/09/13 05:51:18;;;;;;;5.65;5.20;;;;;;;19.01;71.71;101003.66;5069712;28;20028;-47
2021/09/13 05:53:43;;;;;;;6.07;5.47;;;;;;;19.01;71.74;101017.00;5069624;28;20059;-47
2021/09/13 05:56:08;;;;;;;5.80;5.30;;;;;;;19.02;71.64;101012.50;5053616;28;20099;-47
2021/09/13 05:58:34;;;;;;;7.00;5.57;;;;;;;19.01;71.81;101014.34;5070034;28;20024;-46
2021/09/13 06:01:00;;;;;;;5.78;5.28;;;;;;;19.02;71.64;101012.50;5069521;28;20154;-47
2021/09/13 06:03:25;;;;;;;6.07;5.57;;;;;;;19.01;71.68;101011.66;5066510;28;20021;-50
2021/09/13 06:05:50;;;;;;;5.78;5.28;;;;;;;19.01;71.65;101016.13;5069176;28;20025;-48
2021/09/13 06:08:15;;;;;;;5.95;5.45;;;;;;;19.00;71.73;101020.59;5054808;28;20028;-48
2021/09/13 06:10:41;;;;;;;5.70;5.10;;;;;;;18.99;71.53;101029.56;5069783;28;20059;-47
2021/09/13 06:13:11;;;;;;;5.78;5.28;;;;;;;19.00;71.58;101022.41;5069971;28;20066;-47
2021/09/13 06:15:36;;;;;;;5.65;5.25;;;;;;;18.99;71.73;101029.56;5069569;28;20033;-48
2021/09/13 06:18:02;;;;;;;6.55;6.05;;;;;;;18.99;71.56;101024.19;5069883;28;20497;-48
2021/09/13 06:20:27;;;;;;;6.15;5.65;;;;;;;18.99;71.58;101032.22;5069511;28;20491;-48
2021/09/13 06:22:52;;;;;;;6.70;6.10;;;;;;;18.99;71.61;101032.22;5071339;28;20028;-47
2021/09/13 06:25:18;;;;;;;6.45;5.85;;;;;;;18.98;71.60;101038.50;5057391;28;20078;-48
2021/09/13 06:27:43;;;;;;;6.85;6.25;;;;;;;18.98;71.67;101033.16;5073575;28;20028;-47
2021/09/13 06:30:09;;;;;;;6.15;5.65;;;;;;;18.98;71.57;101035.84;5059383;28;20016;-48
2021/09/13 06:32:34;;;;;;;6.35;5.85;;;;;;;18.98;71.67;101033.16;5072535;28;20039;-48
2021/09/13 06:35:00;;;;;;;6.43;5.93;;;;;;;18.96;71.61;101030.53;5072660;28;20033;-47
2021/09/13 06:37:25;;;;;;;6.45;5.85;;;;;;;18.96;71.62;101035.88;5073513;28;20025;-48
2021/09/13 06:39:51;;;;;;;6.95;6.40;;;;;;;18.96;71.51;101038.56;5072095;28;20016;-48
2021/09/13 06:42:16;;;;;;;7.45;6.75;;;;;;;18.96;71.52;101040.34;5073434;28;20047;-48
2021/09/13 06:44:45;;;;;;;6.47;5.88;;;;;;;18.97;71.63;101034.06;5073103;28;20029;-47
2021/09/13 06:47:21;;;;;;;6.80;6.20;;;;;;;18.95;71.49;101034.16;5072987;28;20036;-47
2021/09/13 06:49:47;;;;;;;6.57;6.07;;;;;;;18.96;71.63;101043.03;5058754;28;20145;-48
2021/09/13 06:52:12;;;;;;;6.50;6.00;;;;;;;18.95;71.53;101051.97;5058607;28;20091;-47
2021/09/13 06:54:37;;;;;;;7.00;6.40;;;;;;;18.95;71.48;101049.31;5072904;28;20120;-48
2021/09/13 06:57:03;;;;;;;6.60;6.10;;;;;;;18.95;71.57;101049.31;5073168;28;20027;-48
2021/09/13 06:59:28;;;;;;;7.63;6.93;;;;;;;18.95;71.51;101055.53;5055970;28;20017;-47
2021/09/13 07:01:53;;;;;;;7.15;6.45;;;;;;;18.94;71.36;101051.09;5040616;28;20490;-48
2021/09/13 07:04:20;;;;;;;6.85;6.25;;;;;;;18.94;71.60;101050.25;5072428;28;20039;-48
2021/09/13 07:06:46;;;;;;;7.75;7.03;;;;;;;18.92;71.46;101044.97;5072174;28;20028;-47
2021/09/13 07:09:11;;;;;;;6.90;6.30;;;;;;;18.92;71.63;101046.75;5072725;28;20470;-48
2021/09/13 07:11:36;;;;;;;7.25;6.55;;;;;;;18.91;71.55;101053.03;5072528;28;20022;-48
2021/09/13 07:14:02;;;;;;;7.00;6.30;;;;;;;18.90;71.39;101056.66;5075079;28;20554;-48
2021/09/13 07:16:28;;;;;;;7.03;6.35;;;;;;;18.90;71.42;101053.97;5057370;28;20116;-47
2021/09/13 07:18:53;;;;;;;7.03;6.43;;;;;;;18.91;71.51;101058.38;5072440;28;20035;-48
2021/09/13 07:21:18;;;;;;;6.68;6.07;;;;;;;18.91;71.35;101058.38;5072996;28;20028;-48
2021/09/13 07:23:44;;;;;;;7.80;7.10;;;;;;;18.91;71.36;101061.06;5072045;28;20016;-47
2021/09/13 07:26:09;;;;;;;7.60;6.93;;;;;;;18.89;71.27;101060.22;5072277;28;20024;-47
2021/09/13 07:28:35;;;;;;;7.43;6.70;;;;;;;18.89;71.23;101065.56;5058949;28;20024;-47
2021/09/13 07:31:00;;;;;;;7.20;6.57;;;;;;;18.89;71.34;101066.44;5071918;28;20056;-47
2021/09/13 07:33:26;;;;;;;6.85;6.25;;;;;;;18.90;71.39;101070.00;5071396;28;20056;-47
2021/09/13 07:35:51;;;;;;;7.28;6.63;;;;;;;18.89;71.31;101065.56;5071635;28;20537;-48
2021/09/13 07:38:17;;;;;;;6.80;6.20;;;;;;;18.88;71.46;101074.53;5071822;28;20710;-47
2021/09/13 07:40:42;;;;;;;7.55;6.88;;;;;;;18.87;71.40;101072.78;5072115;28;20039;-47
2021/09/13 07:43:09;;;;;;;7.18;6.57;;;;;;;18.87;71.43;101072.78;5072491;28;20051;-48
2021/09/13 07:45:35;;;;;;;6.57;5.97;;;;;;;18.85;71.49;101075.50;5071624;28;20028;-48
2021/09/13 07:48:01;;;;;;;7.93;7.07;;;;;;;18.85;71.32;101076.38;5071524;28;20028;-47
2021/09/13 07:50:26;;;;;;;8.13;7.43;;;;;;;18.85;71.38;101079.03;5058634;28;20023;-48
2021/09/13 07:52:51;;;;;;;7.18;6.50;;;;;;;18.86;71.19;101082.59;5071724;28;20032;-47
2021/09/13 07:55:17;;;;;;;7.93;7.22;;;;;;;18.86;71.28;101082.59;5056436;28;20364;-47
2021/09/13 07:57:42;;;;;;;7.30;6.63;;;;;;;18.85;71.25;101087.06;5072044;28;20032;-48
2021/09/13 08:00:08;;;;;;;6.90;6.30;;;;;;;18.87;71.43;101091.50;5070578;28;20078;-48
2021/09/13 08:02:33;;;;;;;6.53;5.97;;;;;;;18.84;71.43;101088.00;5055912;28;20046;-48
2021/09/13 08:05:00;;;;;;;6.07;5.47;;;;;;;18.87;71.27;101099.50;5071452;28;20029;-48
2021/09/13 08:07:25;;;;;;;7.80;7.10;;;;;;;18.83;71.31;101094.28;5040249;28;20127;-47
2021/09/13 08:09:50;;;;;;;7.88;7.07;;;;;;;18.85;71.31;101103.09;5056359;28;20505;-48
2021/09/13 08:12:16;;;;;;;8.07;7.32;;;;;;;18.85;71.31;101100.41;5071386;28;20124;-48
2021/09/13 08:14:41;;;;;;;15.20;7.20;;;;;;;18.84;71.43;101112.03;5070807;28;20033;-47
2021/09/13 08:17:07;;;;;;;7.22;6.53;;;;;;;18.85;71.18;101096.88;5071329;28;20060;-47
2021/09/13 08:19:32;;;;;;;7.10;6.50;;;;;;;18.85;71.23;101108.44;5054849;28;20490;-48
2021/09/13 08:21:58;;;;;;;7.43;6.72;;;;;;;18.83;71.24;101099.63;5071117;28;20083;-48
2021/09/13 08:24:23;;;;;;;7.85;6.93;;;;;;;18.85;71.28;101107.56;5071497;28;20497;-47
2021/09/13 08:26:48;;;;;;;8.35;7.45;;;;;;;18.82;71.17;101111.25;5071074;28;20021;-47
2021/09/13 08:29:15;;;;;;;8.00;7.20;;;;;;;18.82;71.47;101113.91;5057672;28;20107;-47
2021/09/13 08:31:43;;;;;;;7.90;7.10;;;;;;;18.83;71.09;101114.75;5071401;28;20078;-47
2021/09/13 08:34:09;;;;;;;8.98;6.95;;;;;;;18.82;71.21;101111.25;5070914;28;20017;-49
2021/09/13 08:36:35;;;;;;;6.85;6.15;;;;;;;18.82;71.05;101116.59;5055722;28;20036;-47
2021/09/13 08:39:00;;;;;;;8.90;7.93;;;;;;;18.82;70.98;101113.91;5071233;28;20031;-48
2021/09/13 08:41:25;;;;;;;7.88;6.97;;;;;;;18.83;71.24;101123.66;5071419;28;20017;-47
2021/09/13 08:43:52;;;;;;;7.55;6.75;;;;;;;18.83;71.06;101126.34;5070649;28;20016;-48
2021/09/13 08:46:23;;;;;;;7.93;7.15;;;;;;;18.83;71.32;101125.44;5070200;28;20099;-47
2021/09/13 08:48:52;;;;;;;7.88;7.18;;;;;;;18.82;71.17;101126.38;5055300;28;20096;-47
2021/09/13 08:51:29;;;;;;;7.82;7.03;;;;;;;18.81;71.19;101133.53;5070366;28;20029;-47
2021/09/13 08:53:55;;;;;;;7.97;7.18;;;;;;;18.83;71.24;101131.69;5069979;28;20016;-47
2021/09/13 08:56:24;;;;;;;7.55;6.72;;;;;;;18.82;71.20;101127.28;5055252;28;20028;-48
2021/09/13 08:58:50;;;;;;;7.63;6.93;;;;;;;18.82;71.21;101126.38;5070546;28;20103;-47
2021/09/13 09:01:15;;;;;;;7.05;6.43;;;;;;;18.82;71.30;101129.94;5070685;28;20085;-47
2021/09/13 09:03:43;;;;;;;7.75;7.05;;;;;;;18.82;71.23;101135.28;5070234;28;20023;-47
2021/09/13 09:06:27;;;;;;;7.97;7.22;;;;;;;18.83;71.25;101130.81;5070128;28;20501;-47
2021/09/13 09:09:09;;;;;;;7.90;7.10;;;;;;;18.83;70.99;101136.13;5070642;28;20036;-48
2021/09/13 09:11:56;;;;;;;7.95;7.18;;;;;;;18.83;71.19;101137.03;5068670;28;20226;-47
2021/09/13 09:14:44;;;;;;;7.40;6.70;;;;;;;18.84;71.15;101138.75;5069815;28;20032;-47
2021/09/13 09:17:16;;;;;;;7.80;7.10;;;;;;;18.84;70.89;101143.25;5069290;28;20025;-47
2021/09/13 09:19:41;;;;;;;7.65;6.97;;;;;;;18.83;71.11;101142.38;5055230;28;20029;-48
2021/09/13 09:22:19;;;;;;;7.18;6.20;;;;;;;18.84;70.97;101146.78;5070293;28;20038;-48
2021/09/13 09:24:45;;;;;;;7.80;7.00;;;;;;;18.83;70.97;101146.84;5038453;28;20499;-47
2021/09/13 09:27:11;;;;;;;7.53;6.82;;;;;;;18.83;71.02;101150.38;5055872;28;20566;-47
2021/09/13 09:29:36;;;;;;;8.20;7.40;;;;;;;18.81;71.12;101149.56;5066572;28;20028;-48
2021/09/13 09:32:02;;;;;;;7.97;7.25;;;;;;;18.82;71.27;101150.44;5070109;28;20028;-47
2021/09/13 09:34:31;;;;;;;8.15;7.45;;;;;;;18.83;71.24;101150.38;5069742;28;20032;-48
2021/09/13 09:37:00;;;;;;;7.95;7.20;;;;;;;18.82;70.99;101151.31;5054264;28;20028;-48
2021/09/13 09:39:32;;;;;;;8.05;7.32;;;;;;;18.82;71.03;101156.66;5067798;28;20414;-48
2021/09/13 09:41:58;;;;;;;8.25;7.45;;;;;;;18.82;71.00;101151.31;5069746;28;20021;-48
2021/09/13 09:44:24;;;;;;;8.40;7.60;;;;;;;18.81;71.17;101154.91;5069609;28;20115;-47
2021/09/13 09:46:51;;;;;;;8.18;7.38;;;;;;;18.82;71.09;101151.31;5069946;28;20425;-48
2021/09/13 09:49:18;;;;;;;8.20;7.40;;;;;;;18.83;71.04;101150.38;5070134;28;20421;-48
2021/09/13 09:51:50;;;;;;;9.02;8.00;;;;;;;18.83;70.96;101153.06;5037985;28;20029;-47
2021/09/13 09:54:16;;;;;;;7.93;7.20;;;;;;;18.82;71.03;101148.66;5067558;28;20043;-47
2021/09/13 09:56:43;;;;;;;8.48;7.68;;;;;;;18.82;71.01;101145.97;5050964;28;20032;-48
2021/09/13 09:59:10;;;;;;;8.02;7.28;;;;;;;18.83;71.13;101137.03;5053575;28;20107;-47
2021/09/13 10:01:39;;;;;;;9.15;8.32;;;;;;;18.83;71.00;101136.13;5052242;28;20394;-47
2021/09/13 10:04:17;;;;;;;8.80;8.00;;;;;;;18.82;71.03;101140.63;5069432;28;20536;-48
2021/09/13 10:06:44;;;;;;;8.18;7.38;;;;;;;18.84;71.05;101140.59;5068436;28;20028;-48
2021/09/13 10:09:10;;;;;;;7.38;6.68;;;;;;;18.83;71.14;101145.03;5066901;28;20029;-47
2021/09/13 10:11:39;;;;;;;8.32;7.63;;;;;;;18.83;71.01;101139.69;5066903;28;20032;-48
2021/09/13 10:14:06;;;;;;;7.70;6.93;;;;;;;18.83;71.02;101131.69;5069609;28;20109;-46
2021/09/13 10:16:31;;;;;;;9.25;7.95;;;;;;;18.83;71.07;101134.34;5069360;28;20423;-48
2021/09/13 10:18:58;;;;;;;8.40;7.65;;;;;;;18.84;71.04;101125.41;5052873;28;20046;-47
2021/09/13 10:21:23;;;;;;;8.48;7.78;;;;;;;18.83;71.18;101131.69;5069562;28;20020;-48
2021/09/13 10:23:48;;;;;;;8.45;7.70;;;;;;;18.84;71.13;101128.06;5069380;28;20035;-47
2021/09/13 10:26:14;;;;;;;8.88;8.02;;;;;;;18.83;71.12;101125.44;5069640;28;20028;-47
2021/09/13 10:29:01;;;;;;;9.05;8.20;;;;;;;18.84;71.04;101127.22;5069078;28;20035;-48
2021/09/13 10:31:41;;;;;;;9.15;8.35;;;;;;;18.83;71.07;101120.09;5054406;28;20051;-47
2021/09/13 10:34:27;;;;;;;9.73;8.93;;;;;;;18.83;70.97;101123.66;5069466;28;20082;-48
2021/09/13 10:36:59;;;;;;;8.57;7.85;;;;;;;18.84;71.01;101127.22;5068667;28;20029;-48
2021/09/13 10:40:00;;;;;;;9.15;8.27;;;;;;;18.84;71.05;101130.75;5069341;28;20397;-47
2021/09/13 10:42:29;;;;;;;9.10;8.20;;;;;;;18.85;71.11;101119.13;5048092;28;20036;-47
2021/09/13 10:45:10;;;;;;;8.73;7.93;;;;;;;18.86;71.07;101130.69;5053786;28;20028;-48
2021/09/13 10:47:36;;;;;;;9.20;8.30;;;;;;;18.87;70.86;101123.56;5066778;28;20044;-49
2021/09/13 10:50:23;;;;;;;9.23;8.40;;;;;;;18.89;70.94;101127.03;5068847;28;20024;-47
2021/09/13 10:52:51;;;;;;;9.48;8.55;;;;;;;18.88;70.90;101128.84;5054161;28;20024;-49
2021/09/13 10:55:18;;;;;;;9.50;8.55;;;;;;;18.86;71.04;101125.34;5054048;28;20032;-47
2021/09/13 10:57:58;;;;;;;9.90;8.48;;;;;;;18.88;70.91;101125.28;5069134;28;20035;-47
2021/09/13 11:00:39;;;;;;;10.23;9.25;;;;;;;18.87;70.92;101134.25;5066434;28;20021;-47
2021/09/13 11:03:22;;;;;;;8.82;8.00;;;;;;;18.89;70.76;101130.59;5069088;28;20482;-48
2021/09/13 11:06:06;;;;;;;9.90;8.30;;;;;;;18.87;70.85;101121.75;5069348;28;20082;-47
2021/09/13 11:08:55;;;;;;;8.73;7.97;;;;;;;18.90;70.78;101110.94;5068345;28;20429;-48
2021/09/13 11:11:32;;;;;;;8.68;7.97;;;;;;;18.88;70.94;101119.94;5069656;28;20367;-48
2021/09/13 11:14:08;;;;;;;9.23;8.32;;;;;;;18.89;70.76;101124.34;5072427;28;20111;-48
2021/09/13 11:16:42;;;;;;;9.05;8.15;;;;;;;18.89;70.80;101124.34;5071515;28;20016;-47
2021/09/13 11:19:10;;;;;;;9.27;8.48;;;;;;;18.88;70.61;101126.19;5070930;28;20407;-48
2021/09/13 11:21:43;;;;;;;8.85;8.15;;;;;;;18.91;70.61;101122.50;5072517;28;20064;-47
2021/09/13 11:24:37;;;;;;;8.95;8.15;;;;;;;18.93;70.62;101120.63;5070589;28;20013;-47
2021/09/13 11:27:08;;;;;;;8.95;8.15;;;;;;;18.92;70.46;101114.44;5067209;28;20047;-48